createdAt,value
2023-01-29T00:00:10.631Z,67.78
2023-01-29T00:03:01.623Z,67.97
2023-01-29T00:05:29.764Z,67.88
2023-01-29T00:07:58.029Z,67.37
2023-01-29T00:10:26.498Z,67.29
2023-01-29T00:12:55.317Z,66.89
2023-01-29T00:15:23.825Z,66.95
2023-01-29T00:17:52.243Z,67.25
2023-01-29T00:20:20.347Z,67.24
2023-01-29T00:22:48.841Z,67.27
2023-01-29T00:25:16.832Z,67.37
2023-01-29T00:27:44.770Z,66.98
2023-01-29T00:30:13.531Z,67.16
2023-01-29T00:32:42.219Z,67.36
2023-01-29T00:35:10.381Z,67.10
2023-01-29T00:37:38.771Z,66.89
2023-01-29T00:40:07.388Z,66.67
2023-01-29T00:42:53.927Z,66.70
2023-01-29T00:45:22.346Z,66.74
2023-01-29T00:47:51.109Z,67.14
2023-01-29T00:50:19.592Z,67.23
2023-01-29T00:52:49.652Z,66.73
2023-01-29T00:55:18.353Z,66.61
2023-01-29T00:57:47.186Z,66.83
2023-01-29T01:00:19.181Z,66.90
2023-01-29T01:03:05.611Z,66.39
2023-01-29T01:05:34.825Z,66.47
2023-01-29T01:08:02.844Z,66.49
2023-01-29T01:10:33.099Z,66.41
2023-01-29T01:13:04.662Z,66.47
2023-01-29T01:15:37.231Z,66.68
2023-01-29T01:18:06.220Z,66.45
2023-01-29T01:20:35.835Z,66.65
2023-01-29T01:23:04.719Z,66.78
2023-01-29T01:25:32.849Z,66.82
2023-01-29T01:28:03.565Z,66.39
2023-01-29T01:30:33.094Z,66.16
2023-01-29T01:33:02.387Z,66.40
2023-01-29T01:35:32.122Z,66.53
2023-01-29T01:38:00.077Z,66.59
2023-01-29T01:40:28.170Z,66.58
2023-01-29T01:42:58.979Z,66.29
2023-01-29T01:45:30.058Z,66.62
2023-01-29T01:48:21.424Z,66.60
2023-01-29T01:50:58.604Z,66.44
2023-01-29T01:53:34.453Z,66.50
2023-01-29T01:56:08.017Z,66.59
2023-01-29T01:58:59.369Z,66.82
2023-01-29T02:01:30.530Z,66.89
2023-01-29T02:04:26.146Z,66.83
2023-01-29T02:07:14.694Z,66.91
2023-01-29T02:09:51.461Z,66.75
2023-01-29T02:12:21.068Z,66.92
2023-01-29T02:14:51.427Z,66.95
2023-01-29T02:17:20.570Z,67.13
2023-01-29T02:19:51.322Z,67.14
2023-01-29T02:22:46.131Z,67.09
2023-01-29T02:25:39.202Z,67.12
2023-01-29T02:28:14.125Z,67.30
2023-01-29T02:31:04.272Z,67.19
2023-01-29T02:33:45.640Z,67.10
2023-01-29T02:36:27.873Z,67.24
2023-01-29T02:39:35.625Z,67.45
2023-01-29T02:42:22.959Z,67.48
2023-01-29T02:45:00.517Z,67.66
2023-01-29T02:47:48.780Z,67.93
2023-01-29T02:50:23.961Z,68.17
2023-01-29T02:53:05.817Z,67.99
2023-01-29T02:55:46.761Z,67.75
2023-01-29T02:58:30.463Z,67.83
2023-01-29T03:01:05.911Z,67.90
2023-01-29T03:03:41.221Z,68.09
2023-01-29T03:06:32.057Z,68.11
2023-01-29T03:09:05.372Z,68.18
2023-01-29T03:11:40.248Z,68.22
2023-01-29T03:14:17.042Z,68.24
2023-01-29T03:16:45.324Z,68.30
2023-01-29T03:19:38.808Z,68.29
2023-01-29T03:22:16.640Z,68.07
2023-01-29T03:25:10.721Z,68.20
2023-01-29T03:28:03.890Z,68.28
2023-01-29T03:31:00.174Z,68.40
2023-01-29T03:33:52.679Z,68.49
2023-01-29T03:37:04.152Z,68.61
2023-01-29T03:39:32.200Z,68.56
2023-01-29T03:42:17.141Z,68.60
2023-01-29T03:44:57.498Z,68.75
2023-01-29T03:47:50.612Z,68.68
2023-01-29T03:50:21.411Z,68.46
2023-01-29T03:53:17.169Z,68.49
2023-01-29T03:56:09.256Z,68.52
2023-01-29T03:58:44.279Z,68.55
2023-01-29T04:01:24.390Z,68.59
2023-01-29T04:04:02.021Z,68.77
2023-01-29T04:06:34.369Z,68.85
2023-01-29T04:09:12.486Z,69.00
2023-01-29T04:11:48.325Z,69.08
2023-01-29T04:14:17.983Z,69.12
2023-01-29T04:16:51.563Z,69.01
2023-01-29T04:19:48.066Z,69.06
2023-01-29T04:22:28.077Z,69.23
2023-01-29T04:25:02.643Z,69.36
2023-01-29T04:28:00.216Z,69.58
2023-01-29T04:30:52.537Z,69.66
2023-01-29T04:33:40.132Z,69.81
2023-01-29T04:36:14.656Z,69.97
2023-01-29T04:39:01.013Z,70.09
2023-01-29T04:41:43.489Z,70.19
2023-01-29T04:44:26.391Z,70.12
2023-01-29T04:47:22.092Z,70.22
2023-01-29T04:49:58.919Z,70.27
2023-01-29T04:53:12.394Z,70.19
2023-01-29T04:56:09.146Z,70.21
2023-01-29T04:58:42.555Z,70.11
2023-01-29T05:01:15.093Z,70.11
2023-01-29T05:03:50.027Z,70.10
2023-01-29T05:06:19.240Z,69.98
2023-01-29T05:08:50.030Z,70.18
2023-01-29T05:11:21.345Z,70.26
2023-01-29T05:13:49.543Z,70.12
2023-01-29T05:16:24.640Z,70.00
2023-01-29T05:18:53.510Z,69.79
2023-01-29T05:21:24.220Z,69.81
2023-01-29T05:24:17.455Z,69.92
2023-01-29T05:27:07.236Z,70.13
2023-01-29T05:29:35.422Z,70.12
2023-01-29T05:32:04.087Z,69.88
2023-01-29T05:34:32.338Z,69.95
2023-01-29T05:37:00.580Z,69.66
2023-01-29T05:39:28.577Z,69.62
2023-01-29T05:41:56.582Z,69.69
2023-01-29T05:44:24.733Z,69.78
2023-01-29T05:46:53.425Z,69.76
2023-01-29T05:49:22.610Z,69.53
2023-01-29T05:51:50.646Z,69.57
2023-01-29T05:54:18.833Z,69.66
2023-01-29T05:56:46.913Z,69.45
2023-01-29T05:59:16.224Z,69.48
2023-01-29T06:01:44.449Z,69.41
2023-01-29T06:04:12.521Z,69.41
2023-01-29T06:06:41.119Z,69.20
2023-01-29T06:09:11.167Z,69.18
2023-01-29T06:11:40.004Z,69.06
2023-01-29T06:14:08.193Z,68.93
2023-01-29T06:16:36.353Z,68.87
2023-01-29T06:19:04.310Z,68.90
2023-01-29T06:21:32.735Z,68.73
2023-01-29T06:24:01.448Z,68.78
2023-01-29T06:26:29.786Z,68.71
2023-01-29T06:28:58.412Z,68.69
2023-01-29T06:31:38.791Z,68.76
2023-01-29T06:34:08.302Z,68.97
2023-01-29T06:36:36.588Z,69.00
2023-01-29T06:39:04.846Z,68.76
2023-01-29T06:41:33.754Z,68.28
2023-01-29T06:44:01.772Z,68.40
2023-01-29T06:46:30.077Z,68.35
2023-01-29T06:49:00.431Z,68.28
2023-01-29T06:51:28.717Z,68.43
2023-01-29T06:53:57.129Z,68.44
2023-01-29T06:56:25.376Z,68.53
2023-01-29T06:58:53.687Z,68.51
2023-01-29T07:01:35.069Z,68.36
2023-01-29T07:04:04.336Z,68.20
2023-01-29T07:06:33.181Z,68.23
2023-01-29T07:09:01.751Z,68.19
2023-01-29T07:11:29.812Z,68.01
2023-01-29T07:13:58.307Z,67.84
2023-01-29T07:16:27.204Z,68.00
2023-01-29T07:18:55.426Z,68.04
2023-01-29T07:21:23.872Z,67.84
2023-01-29T07:23:52.192Z,67.80
2023-01-29T07:26:20.278Z,67.64
2023-01-29T07:28:48.503Z,67.55
2023-01-29T07:31:16.551Z,67.33
2023-01-29T07:33:45.425Z,67.60
2023-01-29T07:36:13.854Z,67.71
2023-01-29T07:38:42.180Z,67.65
2023-01-29T07:41:12.811Z,67.54
2023-01-29T07:43:41.090Z,67.39
2023-01-29T07:46:09.354Z,67.64
2023-01-29T07:48:38.109Z,67.62
2023-01-29T07:51:06.579Z,67.50
2023-01-29T07:53:34.621Z,67.67
2023-01-29T07:56:03.486Z,67.67
2023-01-29T07:58:33.482Z,67.53
2023-01-29T08:01:08.075Z,67.38
2023-01-29T08:03:36.602Z,67.50
2023-01-29T08:06:04.926Z,67.58
2023-01-29T08:08:33.517Z,67.54
2023-01-29T08:11:05.764Z,67.44
2023-01-29T08:13:34.149Z,67.38
2023-01-29T08:16:03.765Z,67.50
2023-01-29T08:18:32.060Z,67.58
2023-01-29T08:21:04.162Z,67.53
2023-01-29T08:23:32.344Z,67.14
2023-01-29T08:26:03.811Z,66.74
2023-01-29T08:28:32.242Z,66.44
2023-01-29T08:31:00.525Z,66.63
2023-01-29T08:33:38.921Z,66.66
2023-01-29T08:36:08.626Z,66.39
2023-01-29T08:38:36.791Z,66.13
2023-01-29T08:41:05.786Z,66.10
2023-01-29T08:43:37.303Z,66.37
2023-01-29T08:46:05.910Z,66.28
2023-01-29T08:48:34.453Z,66.15
2023-01-29T08:51:03.153Z,66.09
2023-01-29T08:53:32.353Z,65.99
2023-01-29T08:56:00.471Z,65.97
2023-01-29T08:58:28.755Z,65.85
2023-01-29T09:00:56.651Z,65.94
2023-01-29T09:03:24.535Z,65.80
2023-01-29T09:05:52.991Z,65.56
2023-01-29T09:08:20.895Z,65.02
2023-01-29T09:10:48.947Z,65.41
2023-01-29T09:13:17.085Z,64.72
2023-01-29T09:15:45.171Z,64.42
2023-01-29T09:18:13.182Z,64.76
2023-01-29T09:20:41.907Z,64.92
2023-01-29T09:23:11.812Z,64.95
2023-01-29T09:25:43.041Z,64.57
2023-01-29T09:28:11.946Z,64.37
2023-01-29T09:30:41.369Z,64.26
2023-01-29T09:33:09.909Z,64.39
2023-01-29T09:35:41.167Z,64.39
2023-01-29T09:38:10.907Z,64.27
2023-01-29T09:41:14.376Z,64.02
2023-01-29T09:43:50.192Z,63.97
2023-01-29T09:46:40.039Z,64.04
2023-01-29T09:49:24.840Z,63.76
2023-01-29T09:52:05.800Z,67.91
2023-01-29T09:54:45.651Z,65.05
2023-01-29T09:57:23.044Z,66.58
2023-01-29T09:59:51.276Z,66.97
2023-01-29T10:02:52.585Z,63.57
2023-01-29T10:05:26.930Z,62.47
2023-01-29T10:08:24.817Z,62.26
2023-01-29T10:11:08.160Z,62.44
2023-01-29T10:13:43.227Z,62.06
2023-01-29T10:16:49.186Z,62.49
2023-01-29T10:19:49.175Z,62.72
2023-01-29T10:22:31.551Z,63.12
2023-01-29T10:25:21.019Z,63.48
2023-01-29T10:27:53.160Z,62.90
2023-01-29T10:30:46.479Z,62.68
2023-01-29T10:33:26.380Z,63.18
2023-01-29T10:36:01.195Z,62.97
2023-01-29T10:38:46.370Z,63.44
2023-01-29T10:41:39.531Z,63.36
2023-01-29T10:44:07.655Z,63.21
2023-01-29T10:46:53.543Z,63.27
2023-01-29T10:49:30.223Z,62.81
2023-01-29T10:52:05.082Z,62.86
2023-01-29T10:54:59.158Z,62.55
2023-01-29T10:57:45.965Z,62.85
2023-01-29T11:00:24.945Z,63.22
2023-01-29T11:02:53.878Z,63.52
2023-01-29T11:05:37.530Z,62.96
2023-01-29T11:08:11.643Z,62.54
2023-01-29T11:11:12.687Z,62.32
2023-01-29T11:13:49.049Z,62.42
2023-01-29T11:16:17.092Z,62.21
2023-01-29T11:18:54.902Z,62.07
2023-01-29T11:21:25.032Z,62.38
2023-01-29T11:24:06.629Z,62.42
2023-01-29T11:26:40.760Z,62.65
2023-01-29T11:29:44.702Z,62.80
2023-01-29T11:32:19.224Z,71.27
2023-01-29T11:35:16.456Z,65.01
2023-01-29T11:37:46.010Z,62.59
2023-01-29T11:40:20.574Z,62.46
2023-01-29T11:42:49.838Z,61.89
2023-01-29T11:45:20.838Z,61.35
2023-01-29T11:47:53.926Z,61.65
2023-01-29T11:50:29.270Z,62.03
2023-01-29T11:52:59.804Z,61.85
2023-01-29T11:55:40.981Z,61.69
2023-01-29T11:58:29.767Z,61.45
2023-01-29T12:00:59.504Z,61.62
2023-01-29T12:03:34.375Z,61.54
2023-01-29T12:06:05.875Z,61.91
2023-01-29T12:08:39.029Z,61.84
2023-01-29T12:11:10.420Z,61.81
2023-01-29T12:13:40.962Z,61.18
2023-01-29T12:16:25.753Z,61.44
2023-01-29T12:19:12.061Z,61.83
2023-01-29T12:21:56.205Z,61.91
2023-01-29T12:24:36.372Z,61.66
2023-01-29T12:27:24.538Z,64.22
2023-01-29T12:30:02.214Z,62.29
2023-01-29T12:32:38.363Z,61.09
2023-01-29T12:35:18.093Z,62.56
2023-01-29T12:37:57.509Z,61.56
2023-01-29T12:40:32.003Z,61.30
2023-01-29T12:43:06.953Z,61.33
2023-01-29T12:45:37.779Z,61.47
2023-01-29T12:48:10.551Z,61.33
2023-01-29T12:50:39.530Z,61.24
2023-01-29T12:53:20.549Z,60.77
2023-01-29T12:55:55.576Z,60.30
2023-01-29T12:58:30.334Z,59.93
2023-01-29T13:01:06.526Z,60.36
2023-01-29T13:03:45.835Z,60.61
2023-01-29T13:06:18.371Z,60.46
2023-01-29T13:08:55.540Z,60.64
2023-01-29T13:11:34.452Z,60.87
2023-01-29T13:14:19.713Z,60.92
2023-01-29T13:16:53.364Z,61.09
2023-01-29T13:19:33.156Z,61.25
2023-01-29T13:22:05.819Z,61.55
2023-01-29T13:24:40.187Z,61.56
2023-01-29T13:27:20.519Z,61.34
2023-01-29T13:29:48.924Z,61.45
2023-01-29T13:32:23.583Z,60.85
2023-01-29T13:34:55.089Z,60.76
2023-01-29T13:37:34.571Z,60.87
2023-01-29T13:40:05.747Z,61.05
2023-01-29T13:42:40.295Z,61.06
2023-01-29T13:45:17.620Z,60.90
2023-01-29T13:47:46.912Z,61.20
2023-01-29T13:50:36.326Z,61.25
2023-01-29T13:53:08.485Z,61.40
2023-01-29T13:55:39.377Z,61.38
2023-01-29T13:58:38.332Z,61.18
2023-01-29T14:01:06.617Z,61.30
2023-01-29T14:04:03.331Z,61.08
2023-01-29T14:06:45.352Z,60.82
2023-01-29T14:09:55.319Z,60.70
2023-01-29T14:12:23.523Z,60.44
2023-01-29T14:15:04.458Z,60.53
2023-01-29T14:17:32.401Z,60.77
2023-01-29T14:20:19.926Z,60.72
2023-01-29T14:22:59.664Z,60.76
2023-01-29T14:25:35.144Z,60.59
2023-01-29T14:28:13.956Z,60.76
2023-01-29T14:30:48.049Z,60.48
2023-01-29T14:33:35.107Z,60.17
2023-01-29T14:36:11.947Z,59.84
2023-01-29T14:38:47.437Z,59.89
2023-01-29T14:41:29.932Z,60.03
2023-01-29T14:44:35.944Z,60.06
2023-01-29T14:47:04.900Z,59.87
2023-01-29T14:49:54.958Z,59.49
2023-01-29T14:52:28.376Z,59.57
2023-01-29T14:55:01.042Z,59.58
2023-01-29T14:57:30.947Z,59.77
2023-01-29T15:00:03.732Z,59.73
2023-01-29T15:02:40.341Z,59.63
2023-01-29T15:05:17.323Z,59.97
2023-01-29T15:07:55.788Z,59.84
2023-01-29T15:11:13.627Z,59.99
2023-01-29T15:13:52.291Z,60.02
2023-01-29T15:16:46.213Z,59.95
2023-01-29T15:19:23.507Z,59.68
2023-01-29T15:22:12.939Z,59.29
2023-01-29T15:24:42.952Z,59.31
2023-01-29T15:27:20.816Z,58.97
2023-01-29T15:29:57.404Z,59.19
2023-01-29T15:32:33.621Z,58.96
2023-01-29T15:35:11.429Z,58.82
2023-01-29T15:37:40.184Z,58.91
2023-01-29T15:40:16.022Z,58.54
2023-01-29T15:42:48.421Z,58.30
2023-01-29T15:45:27.354Z,58.17
2023-01-29T15:48:00.448Z,58.19
2023-01-29T15:50:29.494Z,58.18
2023-01-29T15:53:00.997Z,58.36
2023-01-29T15:55:31.938Z,58.52
2023-01-29T15:58:01.246Z,58.53
2023-01-29T16:00:30.641Z,58.63
2023-01-29T16:03:01.578Z,58.70
2023-01-29T16:05:33.278Z,58.86
2023-01-29T16:08:01.605Z,58.87
2023-01-29T16:10:32.381Z,58.84
2023-01-29T16:13:02.836Z,58.80
2023-01-29T16:15:36.298Z,58.73
2023-01-29T16:18:39.527Z,58.80
2023-01-29T16:21:17.984Z,61.49
2023-01-29T16:23:50.109Z,60.48
2023-01-29T16:26:25.105Z,59.39
2023-01-29T16:28:53.122Z,58.92
2023-01-29T16:31:32.228Z,58.74
2023-01-29T16:34:07.672Z,58.41
2023-01-29T16:36:36.400Z,58.37
2023-01-29T16:39:35.633Z,58.74
2023-01-29T16:42:26.530Z,58.79
2023-01-29T16:44:59.177Z,58.50
2023-01-29T16:47:34.839Z,58.20
2023-01-29T16:50:03.024Z,58.25
2023-01-29T16:52:34.004Z,58.45
2023-01-29T16:55:20.263Z,58.54
2023-01-29T16:57:54.236Z,58.66
2023-01-29T17:00:26.409Z,58.98
2023-01-29T17:03:07.708Z,58.71
2023-01-29T17:05:38.119Z,58.58
2023-01-29T17:08:07.425Z,58.39
2023-01-29T17:10:36.255Z,58.59
2023-01-29T17:13:15.536Z,58.46
2023-01-29T17:15:43.901Z,58.42
2023-01-29T17:18:22.740Z,58.39
2023-01-29T17:20:53.183Z,58.48
2023-01-29T17:23:22.226Z,58.57
2023-01-29T17:25:50.271Z,59.02
2023-01-29T17:28:19.146Z,59.16
2023-01-29T17:31:00.359Z,58.96
2023-01-29T17:33:35.574Z,59.28
2023-01-29T17:36:04.180Z,59.49
2023-01-29T17:38:32.121Z,59.67
2023-01-29T17:41:06.276Z,59.88
2023-01-29T17:43:34.942Z,59.62
2023-01-29T17:46:03.176Z,59.67
2023-01-29T17:48:31.507Z,59.85
2023-01-29T17:51:03.349Z,59.81
2023-01-29T17:53:44.785Z,59.74
2023-01-29T17:56:16.463Z,59.70
2023-01-29T17:58:44.659Z,59.94
2023-01-29T18:01:13.035Z,60.56
2023-01-29T18:03:40.957Z,61.17
2023-01-29T18:06:10.094Z,61.76
2023-01-29T18:08:39.748Z,61.94
2023-01-29T18:11:12.735Z,62.27
2023-01-29T18:13:41.995Z,62.26
2023-01-29T18:16:10.049Z,62.20
2023-01-29T18:18:38.215Z,62.30
2023-01-29T18:21:08.002Z,62.31
2023-01-29T18:23:36.352Z,62.38
2023-01-29T18:26:04.741Z,62.41
2023-01-29T18:28:33.101Z,62.45
2023-01-29T18:31:02.614Z,62.34
2023-01-29T18:33:31.653Z,62.32
2023-01-29T18:36:00.532Z,62.45
2023-01-29T18:38:28.976Z,62.51
2023-01-29T18:41:03.836Z,62.39
2023-01-29T18:43:32.084Z,62.43
2023-01-29T18:46:00.448Z,62.60
2023-01-29T18:48:29.455Z,62.92
2023-01-29T18:50:58.120Z,63.05
2023-01-29T18:53:26.855Z,62.94
2023-01-29T18:56:00.820Z,63.11
2023-01-29T18:58:35.720Z,63.29
2023-01-29T19:01:09.677Z,63.81
2023-01-29T19:03:39.412Z,64.75
2023-01-29T19:06:10.160Z,63.95
2023-01-29T19:08:38.961Z,63.90
2023-01-29T19:11:09.316Z,63.83
2023-01-29T19:13:38.525Z,63.79
2023-01-29T19:16:09.124Z,63.82
2023-01-29T19:18:37.476Z,64.02
2023-01-29T19:21:10.760Z,64.11
2023-01-29T19:23:39.771Z,64.16
2023-01-29T19:26:07.901Z,64.33
2023-01-29T19:28:36.508Z,64.59
2023-01-29T19:31:04.518Z,64.60
2023-01-29T19:33:32.976Z,64.55
2023-01-29T19:36:01.362Z,64.50
2023-01-29T19:38:33.474Z,64.38
2023-01-29T19:41:01.820Z,64.61
2023-01-29T19:43:33.334Z,64.60
2023-01-29T19:46:03.002Z,64.31
2023-01-29T19:48:31.230Z,63.84
2023-01-29T19:51:02.318Z,63.79
2023-01-29T19:53:31.529Z,63.45
2023-01-29T19:56:02.236Z,63.34
2023-01-29T19:58:30.951Z,63.35
2023-01-29T20:01:22.516Z,63.43
2023-01-29T20:03:51.239Z,63.56
2023-01-29T20:06:23.230Z,63.67
2023-01-29T20:08:51.861Z,63.91
2023-01-29T20:11:23.317Z,64.16
2023-01-29T20:13:52.761Z,64.30
2023-01-29T20:16:22.419Z,64.35
2023-01-29T20:18:50.819Z,64.28
2023-01-29T20:21:23.789Z,64.31
2023-01-29T20:23:52.403Z,64.42
2023-01-29T20:26:22.236Z,64.34
2023-01-29T20:28:50.519Z,64.08
2023-01-29T20:31:18.901Z,64.08
2023-01-29T20:33:46.871Z,64.21
2023-01-29T20:36:15.244Z,64.29
2023-01-29T20:38:43.697Z,64.33
2023-01-29T20:41:16.941Z,64.19
2023-01-29T20:43:47.279Z,64.00
2023-01-29T20:46:15.634Z,63.87
2023-01-29T20:48:43.842Z,63.79
2023-01-29T20:51:15.680Z,63.78
2023-01-29T20:53:46.273Z,63.80
2023-01-29T20:56:16.270Z,63.59
2023-01-29T20:58:47.097Z,63.57
2023-01-29T21:01:18.060Z,63.59
2023-01-29T21:03:47.377Z,63.55
2023-01-29T21:06:16.002Z,63.53
2023-01-29T21:08:44.214Z,63.49
2023-01-29T21:11:12.204Z,63.38
2023-01-29T21:13:40.555Z,63.13
2023-01-29T21:16:11.037Z,62.96
2023-01-29T21:18:39.767Z,63.12
2023-01-29T21:21:07.756Z,63.33
2023-01-29T21:23:36.014Z,63.39
2023-01-29T21:26:05.862Z,63.40
2023-01-29T21:28:34.609Z,63.38
2023-01-29T21:31:08.588Z,63.28
2023-01-29T21:33:37.418Z,63.26
2023-01-29T21:36:06.825Z,63.25
2023-01-29T21:38:34.852Z,63.15
2023-01-29T21:41:06.585Z,63.31
2023-01-29T21:43:35.130Z,63.21
2023-01-29T21:46:06.115Z,63.20
2023-01-29T21:48:34.714Z,63.06
2023-01-29T21:51:03.092Z,63.14
2023-01-29T21:53:31.210Z,63.02
2023-01-29T21:56:01.299Z,63.00
2023-01-29T21:58:30.169Z,63.04
2023-01-29T22:01:35.549Z,62.95
2023-01-29T22:03:47.720Z,63.05
2023-01-29T22:06:15.944Z,63.18
2023-01-29T22:08:44.188Z,63.11
2023-01-29T22:11:12.160Z,63.15
2023-01-29T22:13:40.343Z,63.20
2023-01-29T22:16:08.682Z,63.31
2023-01-29T22:18:37.139Z,63.33
2023-01-29T22:21:05.907Z,62.91
2023-01-29T22:23:34.136Z,62.76
2023-01-29T22:26:04.807Z,62.82
2023-01-29T22:28:35.226Z,62.97
2023-01-29T22:31:05.755Z,62.83
2023-01-29T22:33:34.334Z,62.78
2023-01-29T22:36:02.701Z,62.83
2023-01-29T22:38:30.856Z,62.88
2023-01-29T22:41:00.275Z,63.09
2023-01-29T22:43:29.419Z,63.38
2023-01-29T22:45:58.026Z,63.42
2023-01-29T22:48:27.124Z,63.66
2023-01-29T22:51:12.395Z,63.77
2023-01-29T22:53:52.249Z,63.75
2023-01-29T22:56:25.272Z,63.88
2023-01-29T22:58:56.299Z,64.06
2023-01-29T23:01:27.017Z,63.95
2023-01-29T23:03:55.073Z,64.12
2023-01-29T23:06:23.901Z,64.26
2023-01-29T23:08:52.337Z,64.15
2023-01-29T23:11:23.590Z,63.90
2023-01-29T23:13:54.416Z,63.95
2023-01-29T23:16:26.789Z,64.02
2023-01-29T23:18:56.808Z,64.04
2023-01-29T23:21:25.962Z,63.75
2023-01-29T23:23:56.978Z,63.51
2023-01-29T23:26:44.440Z,63.52
2023-01-29T23:29:15.959Z,63.65
2023-01-29T23:31:44.519Z,63.51
2023-01-29T23:34:14.299Z,63.58
2023-01-29T23:36:42.897Z,63.71
2023-01-29T23:39:10.996Z,63.62
2023-01-29T23:41:38.978Z,63.39
2023-01-29T23:44:07.225Z,63.42
2023-01-29T23:46:35.337Z,63.50
2023-01-29T23:49:03.945Z,63.58
2023-01-29T23:51:32.117Z,63.86
2023-01-29T23:54:00.293Z,63.73
2023-01-29T23:56:28.518Z,63.42
2023-01-29T23:58:58.320Z,63.41
